sensor_id;sensor_type;location;lat;lon;timestamp;P1;durP1;ratioP1;P2;durP2;ratioP2
14013;SDS011;49110;52.584;13.408;2023-03-01T00:00:15;23.57;;;16.20;;
14013;SDS011;49110;52.584;13.408;2023-03-01T00:01:17;25.40;;;16.73;;
14013;SDS011;49110;52.584;13.408;2023-03-01T00:02:20;26.10;;;16.55;;
14013;SDS011;49110;52.584;13.408;2023-03-01T00:03:21;75.73;;;46.37;;
14013;SDS011;49110;52.584;13.408;2023-03-01T00:04:21;62.63;;;39.60;;
14013;SDS011;49110;52.584;13.408;2023-03-01T00:05:22;66.20;;;41.87;;
14013;SDS011;49110;52.584;13.408;2023-03-01T00:06:22;57.17;;;36.30;;
14013;SDS011;49110;52.584;13.408;2023-03-01T00:07:23;36.67;;;23.77;;
14013;SDS011;49110;52.584;13.408;2023-03-01T00:08:24;27.17;;;18.20;;
14013;SDS011;49110;52.584;13.408;2023-03-01T00:09:25;32.80;;;18.65;;
14013;SDS011;49110;52.584;13.408;2023-03-01T00:10:25;30.13;;;18.97;;
14013;SDS011;49110;52.584;13.408;2023-03-01T00:11:27;30.60;;;18.00;;
14013;SDS011;49110;52.584;13.408;2023-03-01T00:12:29;27.05;;;18.33;;
14013;SDS011;49110;52.584;13.408;2023-03-01T00:13:31;26.35;;;17.00;;
14013;SDS011;49110;52.584;13.408;2023-03-01T00:14:32;24.27;;;15.43;;
14013;SDS011;49110;52.584;13.408;2023-03-01T00:15:33;24.52;;;16.42;;
14013;SDS011;49110;52.584;13.408;2023-03-01T00:16:39;26.83;;;16.90;;
14013;SDS011;49110;52.584;13.408;2023-03-01T00:17:41;24.42;;;16.10;;
14013;SDS011;49110;52.584;13.408;2023-03-01T00:18:42;24.27;;;15.57;;
14013;SDS011;49110;52.584;13.408;2023-03-01T00:19:43;25.38;;;16.60;;
14013;SDS011;49110;52.584;13.408;2023-03-01T00:20:49;27.80;;;16.63;;
14013;SDS011;49110;52.584;13.408;2023-03-01T00:21:51;26.00;;;16.73;;
14013;SDS011;49110;52.584;13.408;2023-03-01T00:22:51;28.03;;;16.30;;
14013;SDS011;49110;52.584;13.408;2023-03-01T00:23:52;25.53;;;16.27;;
14013;SDS011;49110;52.584;13.408;2023-03-01T00:24:55;25.35;;;15.75;;
14013;SDS011;49110;52.584;13.408;2023-03-01T00:25:56;25.85;;;16.92;;
14013;SDS011;49110;52.584;13.408;2023-03-01T00:26:57;21.90;;;15.77;;
14013;SDS011;49110;52.584;13.408;2023-03-01T00:27:58;26.98;;;15.48;;
14013;SDS011;49110;52.584;13.408;2023-03-01T00:28:59;21.97;;;15.70;;
14013;SDS011;49110;52.584;13.408;2023-03-01T00:29:59;22.63;;;14.80;;
14013;SDS011;49110;52.584;13.408;2023-03-01T00:31:10;28.13;;;16.53;;
14013;SDS011;49110;52.584;13.408;2023-03-01T00:32:12;24.33;;;15.40;;
14013;SDS011;49110;52.584;13.408;2023-03-01T00:33:13;24.60;;;16.27;;
14013;SDS011;49110;52.584;13.408;2023-03-01T00:34:13;22.80;;;15.13;;
14013;SDS011;49110;52.584;13.408;2023-03-01T00:35:14;26.17;;;16.20;;
14013;SDS011;49110;52.584;13.408;2023-03-01T00:36:15;26.43;;;15.67;;
14013;SDS011;49110;52.584;13.408;2023-03-01T00:37:15;22.50;;;15.77;;
14013;SDS011;49110;52.584;13.408;2023-03-01T00:38:16;26.07;;;16.80;;
14013;SDS011;49110;52.584;13.408;2023-03-01T00:39:16;25.00;;;15.70;;
14013;SDS011;49110;52.584;13.408;2023-03-01T00:40:17;24.20;;;15.47;;
14013;SDS011;49110;52.584;13.408;2023-03-01T00:41:18;22.70;;;16.23;;
14013;SDS011;49110;52.584;13.408;2023-03-01T00:42:19;24.38;;;15.75;;
14013;SDS011;49110;52.584;13.408;2023-03-01T00:43:21;24.33;;;15.70;;
14013;SDS011;49110;52.584;13.408;2023-03-01T00:44:22;24.57;;;15.53;;
14013;SDS011;49110;52.584;13.408;2023-03-01T00:45:23;24.37;;;15.97;;
14013;SDS011;49110;52.584;13.408;2023-03-01T00:46:25;23.97;;;15.83;;
14013;SDS011;49110;52.584;13.408;2023-03-01T00:47:28;22.70;;;14.82;;
14013;SDS011;49110;52.584;13.408;2023-03-01T00:48:29;20.92;;;15.25;;
14013;SDS011;49110;52.584;13.408;2023-03-01T00:49:30;24.00;;;15.93;;
14013;SDS011;49110;52.584;13.408;2023-03-01T00:50:30;26.87;;;16.30;;
14013;SDS011;49110;52.584;13.408;2023-03-01T00:51:31;24.80;;;15.63;;
14013;SDS011;49110;52.584;13.408;2023-03-01T00:52:31;22.23;;;14.90;;
14013;SDS011;49110;52.584;13.408;2023-03-01T00:53:32;23.57;;;15.73;;
14013;SDS011;49110;52.584;13.408;2023-03-01T00:54:33;22.95;;;14.95;;
14013;SDS011;49110;52.584;13.408;2023-03-01T00:55:34;22.67;;;15.87;;
14013;SDS011;49110;52.584;13.408;2023-03-01T00:56:36;23.98;;;15.45;;
14013;SDS011;49110;52.584;13.408;2023-03-01T00:57:37;23.63;;;15.50;;
14013;SDS011;49110;52.584;13.408;2023-03-01T00:58:37;21.90;;;14.67;;
14013;SDS011;49110;52.584;13.408;2023-03-01T00:59:38;23.10;;;14.50;;
14013;SDS011;49110;52.584;13.408;2023-03-01T01:00:38;22.47;;;14.37;;
14013;SDS011;49110;52.584;13.408;2023-03-01T01:01:39;22.03;;;14.50;;
14013;SDS011;49110;52.584;13.408;2023-03-01T01:02:39;22.70;;;14.73;;
14013;SDS011;49110;52.584;13.408;2023-03-01T01:03:40;19.07;;;13.70;;
14013;SDS011;49110;52.584;13.408;2023-03-01T01:04:41;21.13;;;14.18;;
14013;SDS011;49110;52.584;13.408;2023-03-01T01:05:41;20.77;;;13.87;;
14013;SDS011;49110;52.584;13.408;2023-03-01T01:06:43;20.67;;;14.07;;
14013;SDS011;49110;52.584;13.408;2023-03-01T01:07:45;20.63;;;13.63;;
14013;SDS011;49110;52.584;13.408;2023-03-01T01:08:45;19.43;;;13.67;;
14013;SDS011;49110;52.584;13.408;2023-03-01T01:09:46;20.50;;;14.23;;
14013;SDS011;49110;52.584;13.408;2023-03-01T01:10:46;19.40;;;12.47;;
14013;SDS011;49110;52.584;13.408;2023-03-01T01:11:48;17.23;;;12.27;;
14013;SDS011;49110;52.584;13.408;2023-03-01T01:12:50;21.83;;;13.35;;
14013;SDS011;49110;52.584;13.408;2023-03-01T01:13:51;20.17;;;13.40;;
14013;SDS011;49110;52.584;13.408;2023-03-01T01:14:51;23.42;;;13.50;;
14013;SDS011;49110;52.584;13.408;2023-03-01T01:15:52;19.80;;;13.23;;
14013;SDS011;49110;52.584;13.408;2023-03-01T01:16:57;21.03;;;14.47;;
14013;SDS011;49110;52.584;13.408;2023-03-01T01:18:06;20.63;;;14.40;;
14013;SDS011;49110;52.584;13.408;2023-03-01T01:19:15;22.90;;;13.48;;
14013;SDS011;49110;52.584;13.408;2023-03-01T01:20:17;21.38;;;13.18;;
14013;SDS011;49110;52.584;13.408;2023-03-01T01:21:20;21.67;;;14.18;;
14013;SDS011;49110;52.584;13.408;2023-03-01T01:22:22;17.70;;;13.02;;
14013;SDS011;49110;52.584;13.408;2023-03-01T01:23:23;18.70;;;13.40;;
14013;SDS011;49110;52.584;13.408;2023-03-01T01:24:24;24.20;;;14.70;;
14013;SDS011;49110;52.584;13.408;2023-03-01T01:25:24;21.20;;;14.17;;
14013;SDS011;49110;52.584;13.408;2023-03-01T01:26:28;20.43;;;14.43;;
14013;SDS011;49110;52.584;13.408;2023-03-01T01:27:30;22.30;;;15.18;;
14013;SDS011;49110;52.584;13.408;2023-03-01T01:28:31;18.20;;;13.20;;
14013;SDS011;49110;52.584;13.408;2023-03-01T01:29:31;21.47;;;13.30;;
14013;SDS011;49110;52.584;13.408;2023-03-01T01:30:32;19.37;;;12.80;;
14013;SDS011;49110;52.584;13.408;2023-03-01T01:31:33;18.13;;;12.40;;
14013;SDS011;49110;52.584;13.408;2023-03-01T01:32:35;19.38;;;13.10;;
14013;SDS011;49110;52.584;13.408;2023-03-01T01:33:35;18.07;;;12.40;;
14013;SDS011;49110;52.584;13.408;2023-03-01T01:34:37;20.23;;;12.20;;
14013;SDS011;49110;52.584;13.408;2023-03-01T01:35:38;16.60;;;11.57;;
14013;SDS011;49110;52.584;13.408;2023-03-01T01:36:38;24.70;;;12.60;;
14013;SDS011;49110;52.584;13.408;2023-03-01T01:37:39;24.40;;;14.87;;
14013;SDS011;49110;52.584;13.408;2023-03-01T01:38:39;18.20;;;13.03;;
14013;SDS011;49110;52.584;13.408;2023-03-01T01:39:42;19.90;;;13.77;;
14013;SDS011;49110;52.584;13.408;2023-03-01T01:40:43;23.27;;;15.13;;
14013;SDS011;49110;52.584;13.408;2023-03-01T01:41:45;21.35;;;15.05;;
14013;SDS011;49110;52.584;13.408;2023-03-01T01:42:45;20.37;;;13.70;;
14013;SDS011;49110;52.584;13.408;2023-03-01T01:43:47;19.13;;;14.10;;
14013;SDS011;49110;52.584;13.408;2023-03-01T01:45:24;21.73;;;13.63;;
14013;SDS011;49110;52.584;13.408;2023-03-01T01:46:35;15.98;;;11.18;;
14013;SDS011;49110;52.584;13.408;2023-03-01T01:47:40;16.27;;;11.52;;
14013;SDS011;49110;52.584;13.408;2023-03-01T01:48:42;17.93;;;12.07;;
14013;SDS011;49110;52.584;13.408;2023-03-01T01:49:50;17.38;;;12.57;;
14013;SDS011;49110;52.584;13.408;2023-03-01T01:50:59;16.20;;;11.38;;
14013;SDS011;49110;52.584;13.408;2023-03-01T01:52:05;16.90;;;11.43;;
14013;SDS011;49110;52.584;13.408;2023-03-01T01:53:12;21.17;;;12.13;;
14013;SDS011;49110;52.584;13.408;2023-03-01T01:54:19;17.67;;;11.65;;
14013;SDS011;49110;52.584;13.408;2023-03-01T01:55:29;15.88;;;11.52;;
14013;SDS011;49110;52.584;13.408;2023-03-01T01:56:29;16.67;;;11.63;;
14013;SDS011;49110;52.584;13.408;2023-03-01T01:57:34;17.20;;;11.60;;
14013;SDS011;49110;52.584;13.408;2023-03-01T01:58:41;18.23;;;11.93;;
14013;SDS011;49110;52.584;13.408;2023-03-01T01:59:44;19.92;;;13.30;;
14013;SDS011;49110;52.584;13.408;2023-03-01T02:00:49;19.00;;;12.73;;
14013;SDS011;49110;52.584;13.408;2023-03-01T02:01:51;17.70;;;12.33;;
14013;SDS011;49110;52.584;13.408;2023-03-01T02:02:56;17.50;;;13.02;;
14013;SDS011;49110;52.584;13.408;2023-03-01T02:04:00;19.85;;;13.23;;
14013;SDS011;49110;52.584;13.408;2023-03-01T02:05:02;18.97;;;13.30;;
14013;SDS011;49110;52.584;13.408;2023-03-01T02:06:26;19.50;;;12.63;;
14013;SDS011;49110;52.584;13.408;2023-03-01T02:07:31;20.10;;;13.40;;
14013;SDS011;49110;52.584;13.408;2023-03-01T02:08:33;20.87;;;14.37;;
14013;SDS011;49110;52.584;13.408;2023-03-01T02:09:41;19.45;;;13.45;;
14013;SDS011;49110;52.584;13.408;2023-03-01T02:10:45;20.05;;;13.20;;
14013;SDS011;49110;52.584;13.408;2023-03-01T02:11:47;19.63;;;13.02;;
14013;SDS011;49110;52.584;13.408;2023-03-01T02:12:51;20.33;;;13.65;;
14013;SDS011;49110;52.584;13.408;2023-03-01T02:13:52;19.23;;;14.23;;
14013;SDS011;49110;52.584;13.408;2023-03-01T02:14:54;20.98;;;14.05;;
14013;SDS011;49110;52.584;13.408;2023-03-01T02:15:54;21.10;;;14.00;;
14013;SDS011;49110;52.584;13.408;2023-03-01T02:16:55;20.10;;;13.60;;
14013;SDS011;49110;52.584;13.408;2023-03-01T02:17:55;17.57;;;12.97;;
14013;SDS011;49110;52.584;13.408;2023-03-01T02:18:56;20.97;;;14.03;;
14013;SDS011;49110;52.584;13.408;2023-03-01T02:22:29;24.38;;;14.23;;
14013;SDS011;49110;52.584;13.408;2023-03-01T02:23:32;21.10;;;13.80;;
14013;SDS011;49110;52.584;13.408;2023-03-01T02:24:47;20.75;;;13.55;;
14013;SDS011;49110;52.584;13.408;2023-03-01T02:26:29;23.10;;;14.43;;
14013;SDS011;49110;52.584;13.408;2023-03-01T02:28:45;20.53;;;13.90;;
14013;SDS011;49110;52.584;13.408;2023-03-01T02:29:46;20.27;;;13.33;;
14013;SDS011;49110;52.584;13.408;2023-03-01T02:30:48;26.33;;;14.60;;
14013;SDS011;49110;52.584;13.408;2023-03-01T02:32:08;23.80;;;14.15;;
14013;SDS011;49110;52.584;13.408;2023-03-01T02:33:10;19.17;;;13.85;;
14013;SDS011;49110;52.584;13.408;2023-03-01T02:34:14;20.17;;;13.87;;
14013;SDS011;49110;52.584;13.408;2023-03-01T02:35:17;18.80;;;13.30;;
14013;SDS011;49110;52.584;13.408;2023-03-01T02:36:20;19.83;;;12.98;;
14013;SDS011;49110;52.584;13.408;2023-03-01T02:37:24;20.17;;;13.35;;
14013;SDS011;49110;52.584;13.408;2023-03-01T02:38:26;21.10;;;13.18;;
14013;SDS011;49110;52.584;13.408;2023-03-01T02:39:29;19.65;;;13.50;;
14013;SDS011;49110;52.584;13.408;2023-03-01T02:40:33;17.35;;;13.00;;
14013;SDS011;49110;52.584;13.408;2023-03-01T02:41:37;22.13;;;13.10;;
14013;SDS011;49110;52.584;13.408;2023-03-01T02:42:47;18.73;;;12.77;;
14013;SDS011;49110;52.584;13.408;2023-03-01T02:43:51;18.40;;;12.75;;
14013;SDS011;49110;52.584;13.408;2023-03-01T02:44:52;19.65;;;12.95;;
14013;SDS011;49110;52.584;13.408;2023-03-01T02:45:56;20.23;;;12.67;;
14013;SDS011;49110;52.584;13.408;2023-03-01T02:46:58;18.05;;;12.77;;
14013;SDS011;49110;52.584;13.408;2023-03-01T02:48:02;19.20;;;12.85;;
14013;SDS011;49110;52.584;13.408;2023-03-01T02:49:15;18.27;;;13.03;;
14013;SDS011;49110;52.584;13.408;2023-03-01T02:52:39;18.50;;;12.35;;
14013;SDS011;49110;52.584;13.408;2023-03-01T02:53:56;20.27;;;12.55;;
14013;SDS011;49110;52.584;13.408;2023-03-01T02:55:13;18.55;;;12.50;;
14013;SDS011;49110;52.584;13.408;2023-03-01T02:56:16;19.10;;;12.50;;
14013;SDS011;49110;52.584;13.408;2023-03-01T02:57:17;20.60;;;12.27;;
14013;SDS011;49110;52.584;13.408;2023-03-01T02:58:18;18.88;;;12.23;;
14013;SDS011;49110;52.584;13.408;2023-03-01T02:59:20;19.63;;;12.23;;
14013;SDS011;49110;52.584;13.408;2023-03-01T03:00:25;19.15;;;11.90;;
14013;SDS011;49110;52.584;13.408;2023-03-01T03:01:29;20.02;;;12.32;;
14013;SDS011;49110;52.584;13.408;2023-03-01T03:02:36;16.30;;;12.35;;
14013;SDS011;49110;52.584;13.408;2023-03-01T03:03:37;19.97;;;13.03;;
14013;SDS011;49110;52.584;13.408;2023-03-01T03:04:37;21.43;;;13.33;;
14013;SDS011;49110;52.584;13.408;2023-03-01T03:05:38;20.33;;;13.13;;
14013;SDS011;49110;52.584;13.408;2023-03-01T03:06:38;18.30;;;12.40;;
14013;SDS011;49110;52.584;13.408;2023-03-01T03:07:40;17.77;;;12.73;;
14013;SDS011;49110;52.584;13.408;2023-03-01T03:08:42;18.45;;;12.60;;
14013;SDS011;49110;52.584;13.408;2023-03-01T03:09:43;19.15;;;12.93;;
14013;SDS011;49110;52.584;13.408;2023-03-01T03:10:44;19.93;;;12.30;;
14013;SDS011;49110;52.584;13.408;2023-03-01T03:11:44;18.57;;;12.77;;
14013;SDS011;49110;52.584;13.408;2023-03-01T03:12:49;18.80;;;12.55;;
14013;SDS011;49110;52.584;13.408;2023-03-01T03:13:55;19.05;;;11.95;;
14013;SDS011;49110;52.584;13.408;2023-03-01T03:14:55;17.60;;;12.30;;
14013;SDS011;49110;52.584;13.408;2023-03-01T03:15:56;19.60;;;12.17;;
14013;SDS011;49110;52.584;13.408;2023-03-01T03:16:57;18.15;;;12.68;;
14013;SDS011;49110;52.584;13.408;2023-03-01T03:17:58;18.63;;;12.83;;
14013;SDS011;49110;52.584;13.408;2023-03-01T03:18:58;19.47;;;12.10;;
14013;SDS011;49110;52.584;13.408;2023-03-01T03:20:05;19.10;;;12.75;;
14013;SDS011;49110;52.584;13.408;2023-03-01T03:21:11;20.38;;;12.00;;
14013;SDS011;49110;52.584;13.408;2023-03-01T03:22:13;21.02;;;11.50;;
14013;SDS011;49110;52.584;13.408;2023-03-01T03:23:14;17.63;;;11.73;;
14013;SDS011;49110;52.584;13.408;2023-03-01T03:24:14;16.33;;;11.60;;
14013;SDS011;49110;52.584;13.408;2023-03-01T03:25:16;18.00;;;12.53;;
14013;SDS011;49110;52.584;13.408;2023-03-01T03:26:17;16.80;;;11.90;;
14013;SDS011;49110;52.584;13.408;2023-03-01T03:27:18;18.40;;;12.43;;
14013;SDS011;49110;52.584;13.408;2023-03-01T03:28:18;25.03;;;12.03;;
14013;SDS011;49110;52.584;13.408;2023-03-01T03:29:19;19.07;;;11.70;;
14013;SDS011;49110;52.584;13.408;2023-03-01T03:30:19;17.77;;;11.87;;
14013;SDS011;49110;52.584;13.408;2023-03-01T03:31:21;19.30;;;11.77;;
14013;SDS011;49110;52.584;13.408;2023-03-01T03:32:21;16.87;;;10.87;;
14013;SDS011;49110;52.584;13.408;2023-03-01T03:33:22;17.27;;;11.77;;
14013;SDS011;49110;52.584;13.408;2023-03-01T03:34:23;18.50;;;11.87;;
14013;SDS011;49110;52.584;13.408;2023-03-01T03:35:30;20.53;;;11.63;;
14013;SDS011;49110;52.584;13.408;2023-03-01T03:36:32;19.77;;;11.63;;
14013;SDS011;49110;52.584;13.408;2023-03-01T03:37:33;16.70;;;12.17;;
14013;SDS011;49110;52.584;13.408;2023-03-01T03:38:52;16.75;;;11.60;;
14013;SDS011;49110;52.584;13.408;2023-03-01T03:39:52;16.07;;;11.60;;
14013;SDS011;49110;52.584;13.408;2023-03-01T03:41:04;16.20;;;12.15;;
14013;SDS011;49110;52.584;13.408;2023-03-01T03:42:07;20.95;;;12.50;;
14013;SDS011;49110;52.584;13.408;2023-03-01T03:43:08;23.87;;;13.07;;
14013;SDS011;49110;52.584;13.408;2023-03-01T03:44:11;17.67;;;11.65;;
14013;SDS011;49110;52.584;13.408;2023-03-01T03:45:11;16.03;;;11.70;;
14013;SDS011;49110;52.584;13.408;2023-03-01T03:46:12;20.10;;;12.13;;
14013;SDS011;49110;52.584;13.408;2023-03-01T03:47:12;18.03;;;11.43;;
14013;SDS011;49110;52.584;13.408;2023-03-01T03:48:13;17.03;;;11.90;;
14013;SDS011;49110;52.584;13.408;2023-03-01T03:49:14;17.25;;;11.35;;
14013;SDS011;49110;52.584;13.408;2023-03-01T03:50:15;19.10;;;11.87;;
14013;SDS011;49110;52.584;13.408;2023-03-01T03:51:17;16.95;;;10.98;;
14013;SDS011;49110;52.584;13.408;2023-03-01T03:52:18;14.27;;;10.18;;
14013;SDS011;49110;52.584;13.408;2023-03-01T03:53:19;15.37;;;10.77;;
14013;SDS011;49110;52.584;13.408;2023-03-01T03:54:20;17.65;;;11.02;;
14013;SDS011;49110;52.584;13.408;2023-03-01T03:55:20;15.40;;;10.57;;
14013;SDS011;49110;52.584;13.408;2023-03-01T03:56:21;14.83;;;10.33;;
14013;SDS011;49110;52.584;13.408;2023-03-01T03:57:25;17.02;;;10.82;;
14013;SDS011;49110;52.584;13.408;2023-03-01T03:58:26;15.13;;;10.47;;
14013;SDS011;49110;52.584;13.408;2023-03-01T03:59:26;14.10;;;9.80;;
14013;SDS011;49110;52.584;13.408;2023-03-01T04:00:27;16.00;;;9.97;;
14013;SDS011;49110;52.584;13.408;2023-03-01T04:01:28;16.85;;;11.35;;
14013;SDS011;49110;52.584;13.408;2023-03-01T04:02:29;15.83;;;10.27;;
14013;SDS011;49110;52.584;13.408;2023-03-01T04:03:30;15.80;;;11.20;;
14013;SDS011;49110;52.584;13.408;2023-03-01T04:04:31;14.70;;;10.07;;
14013;SDS011;49110;52.584;13.408;2023-03-01T04:05:32;15.17;;;11.00;;
14013;SDS011;49110;52.584;13.408;2023-03-01T04:06:33;17.00;;;10.77;;
14013;SDS011;49110;52.584;13.408;2023-03-01T04:07:36;14.03;;;9.63;;
14013;SDS011;49110;52.584;13.408;2023-03-01T04:08:37;13.50;;;9.88;;
14013;SDS011;49110;52.584;13.408;2023-03-01T04:09:39;13.80;;;9.88;;
14013;SDS011;49110;52.584;13.408;2023-03-01T04:10:40;15.40;;;10.33;;
14013;SDS011;49110;52.584;13.408;2023-03-01T04:11:45;12.90;;;10.00;;
14013;SDS011;49110;52.584;13.408;2023-03-01T04:12:46;15.63;;;10.87;;
14013;SDS011;49110;52.584;13.408;2023-03-01T04:13:46;16.13;;;11.00;;
14013;SDS011;49110;52.584;13.408;2023-03-01T04:14:47;15.00;;;10.97;;
14013;SDS011;49110;52.584;13.408;2023-03-01T04:15:48;14.80;;;10.13;;
14013;SDS011;49110;52.584;13.408;2023-03-01T04:16:50;15.65;;;11.18;;
14013;SDS011;49110;52.584;13.408;2023-03-01T04:17:51;14.70;;;10.53;;
14013;SDS011;49110;52.584;13.408;2023-03-01T04:18:53;14.93;;;10.48;;
14013;SDS011;49110;52.584;13.408;2023-03-01T04:19:53;17.13;;;10.83;;
14013;SDS011;49110;52.584;13.408;2023-03-01T04:20:54;16.00;;;11.00;;
14013;SDS011;49110;52.584;13.408;2023-03-01T04:21:55;17.63;;;10.65;;
14013;SDS011;49110;52.584;13.408;2023-03-01T04:23:00;17.63;;;11.23;;
14013;SDS011;49110;52.584;13.408;2023-03-01T04:24:10;15.05;;;10.52;;
14013;SDS011;49110;52.584;13.408;2023-03-01T04:25:11;13.93;;;9.80;;
14013;SDS011;49110;52.584;13.408;2023-03-01T04:26:13;15.82;;;10.73;;
14013;SDS011;49110;52.584;13.408;2023-03-01T04:27:14;17.57;;;11.67;;
14013;SDS011;49110;52.584;13.408;2023-03-01T04:28:14;16.93;;;11.17;;
14013;SDS011;49110;52.584;13.408;2023-03-01T04:29:16;16.52;;;10.57;;
14013;SDS011;49110;52.584;13.408;2023-03-01T04:30:16;17.37;;;11.80;;
14013;SDS011;49110;52.584;13.408;2023-03-01T04:31:18;18.27;;;11.80;;
14013;SDS011;49110;52.584;13.408;2023-03-01T04:32:21;15.50;;;10.70;;
14013;SDS011;49110;52.584;13.408;2023-03-01T04:33:21;15.57;;;11.07;;
14013;SDS011;49110;52.584;13.408;2023-03-01T04:34:22;15.23;;;10.85;;
14013;SDS011;49110;52.584;13.408;2023-03-01T04:35:25;16.33;;;10.80;;
14013;SDS011;49110;52.584;13.408;2023-03-01T04:36:27;16.20;;;10.73;;
14013;SDS011;49110;52.584;13.408;2023-03-01T04:37:29;16.35;;;10.75;;
14013;SDS011;49110;52.584;13.408;2023-03-01T04:38:29;13.67;;;10.83;;
14013;SDS011;49110;52.584;13.408;2023-03-01T04:39:30;21.43;;;10.53;;
14013;SDS011;49110;52.584;13.408;2023-03-01T04:40:30;15.60;;;10.20;;
14013;SDS011;49110;52.584;13.408;2023-03-01T04:41:31;14.13;;;10.77;;
14013;SDS011;49110;52.584;13.408;2023-03-01T04:42:31;20.50;;;10.67;;
14013;SDS011;49110;52.584;13.408;2023-03-01T04:43:32;15.03;;;10.03;;
14013;SDS011;49110;52.584;13.408;2023-03-01T04:44:34;14.93;;;9.82;;
14013;SDS011;49110;52.584;13.408;2023-03-01T04:45:34;16.50;;;10.70;;
14013;SDS011;49110;52.584;13.408;2023-03-01T04:46:35;12.47;;;9.57;;
14013;SDS011;49110;52.584;13.408;2023-03-01T04:47:36;14.87;;;10.13;;
14013;SDS011;49110;52.584;13.408;2023-03-01T04:48:38;13.45;;;9.63;;
14013;SDS011;49110;52.584;13.408;2023-03-01T04:49:40;15.10;;;9.57;;
14013;SDS011;49110;52.584;13.408;2023-03-01T04:50:41;14.17;;;9.80;;
14013;SDS011;49110;52.584;13.408;2023-03-01T04:51:41;15.27;;;9.87;;
14013;SDS011;49110;52.584;13.408;2023-03-01T04:52:43;12.32;;;9.20;;
14013;SDS011;49110;52.584;13.408;2023-03-01T04:53:44;13.80;;;9.93;;
14013;SDS011;49110;52.584;13.408;2023-03-01T04:54:44;14.00;;;9.83;;
14013;SDS011;49110;52.584;13.408;2023-03-01T04:55:45;13.37;;;9.40;;
14013;SDS011;49110;52.584;13.408;2023-03-01T04:56:45;15.50;;;10.17;;
14013;SDS011;49110;52.584;13.408;2023-03-01T04:57:46;11.70;;;9.17;;
14013;SDS011;49110;52.584;13.408;2023-03-01T04:58:46;18.40;;;10.70;;
14013;SDS011;49110;52.584;13.408;2023-03-01T04:59:47;13.90;;;9.93;;
14013;SDS011;49110;52.584;13.408;2023-03-01T05:00:47;14.20;;;10.37;;
14013;SDS011;49110;52.584;13.408;2023-03-01T05:01:48;12.77;;;9.10;;
14013;SDS011;49110;52.584;13.408;2023-03-01T05:02:53;14.18;;;9.18;;
14013;SDS011;49110;52.584;13.408;2023-03-01T05:03:55;14.95;;;10.48;;
14013;SDS011;49110;52.584;13.408;2023-03-01T05:04:56;13.83;;;10.10;;
14013;SDS011;49110;52.584;13.408;2023-03-01T05:05:58;13.38;;;9.63;;
14013;SDS011;49110;52.584;13.408;2023-03-01T05:06:59;17.25;;;10.68;;
14013;SDS011;49110;52.584;13.408;2023-03-01T05:08:01;14.70;;;10.10;;
14013;SDS011;49110;52.584;13.408;2023-03-01T05:09:04;17.60;;;10.80;;
14013;SDS011;49110;52.584;13.408;2023-03-01T05:10:05;15.40;;;10.57;;
14013;SDS011;49110;52.584;13.408;2023-03-01T05:11:05;14.70;;;9.87;;
14013;SDS011;49110;52.584;13.408;2023-03-01T05:12:08;15.82;;;10.65;;
14013;SDS011;49110;52.584;13.408;2023-03-01T05:13:09;15.27;;;9.90;;
14013;SDS011;49110;52.584;13.408;2023-03-01T05:14:10;18.33;;;11.27;;
14013;SDS011;49110;52.584;13.408;2023-03-01T05:15:10;16.83;;;10.70;;
14013;SDS011;49110;52.584;13.408;2023-03-01T05:16:12;16.57;;;10.77;;
14013;SDS011;49110;52.584;13.408;2023-03-01T05:17:13;15.63;;;10.90;;
14013;SDS011;49110;52.584;13.408;2023-03-01T05:18:13;13.70;;;10.13;;
14013;SDS011;49110;52.584;13.408;2023-03-01T05:19:14;15.70;;;10.57;;
14013;SDS011;49110;52.584;13.408;2023-03-01T05:20:15;15.80;;;9.80;;
14013;SDS011;49110;52.584;13.408;2023-03-01T05:21:16;16.30;;;10.73;;
14013;SDS011;49110;52.584;13.408;2023-03-01T05:22:16;14.10;;;9.70;;
14013;SDS011;49110;52.584;13.408;2023-03-01T05:23:17;14.27;;;10.60;;
14013;SDS011;49110;52.584;13.408;2023-03-01T05:24:18;15.93;;;10.48;;
14013;SDS011;49110;52.584;13.408;2023-03-01T05:25:18;18.97;;;10.57;;
14013;SDS011;49110;52.584;13.408;2023-03-01T05:26:21;13.82;;;10.15;;
14013;SDS011;49110;52.584;13.408;2023-03-01T05:27:21;14.13;;;10.17;;
14013;SDS011;49110;52.584;13.408;2023-03-01T05:28:22;18.33;;;14.13;;
14013;SDS011;49110;52.584;13.408;2023-03-01T05:29:23;22.43;;;13.40;;
14013;SDS011;49110;52.584;13.408;2023-03-01T05:30:25;16.17;;;11.38;;
14013;SDS011;49110;52.584;13.408;2023-03-01T05:31:27;13.73;;;10.05;;
14013;SDS011;49110;52.584;13.408;2023-03-01T05:32:27;14.30;;;9.83;;
14013;SDS011;49110;52.584;13.408;2023-03-01T05:33:31;15.10;;;9.57;;
14013;SDS011;49110;52.584;13.408;2023-03-01T05:34:33;14.17;;;10.50;;
14013;SDS011;49110;52.584;13.408;2023-03-01T05:35:35;15.68;;;10.82;;
14013;SDS011;49110;52.584;13.408;2023-03-01T05:36:36;14.77;;;9.80;;
14013;SDS011;49110;52.584;13.408;2023-03-01T05:37:39;15.18;;;10.30;;
14013;SDS011;49110;52.584;13.408;2023-03-01T05:38:42;14.48;;;10.40;;
14013;SDS011;49110;52.584;13.408;2023-03-01T05:39:43;15.68;;;10.18;;
14013;SDS011;49110;52.584;13.408;2023-03-01T05:40:45;15.30;;;9.47;;
14013;SDS011;49110;52.584;13.408;2023-03-01T05:41:46;16.83;;;9.65;;
14013;SDS011;49110;52.584;13.408;2023-03-01T05:42:48;12.93;;;9.27;;
14013;SDS011;49110;52.584;13.408;2023-03-01T05:43:54;14.77;;;9.07;;
14013;SDS011;49110;52.584;13.408;2023-03-01T05:44:54;14.60;;;9.83;;
14013;SDS011;49110;52.584;13.408;2023-03-01T05:45:55;16.33;;;9.17;;
14013;SDS011;49110;52.584;13.408;2023-03-01T05:46:57;12.52;;;9.30;;
14013;SDS011;49110;52.584;13.408;2023-03-01T05:47:58;11.67;;;9.30;;
14013;SDS011;49110;52.584;13.408;2023-03-01T05:48:58;14.50;;;9.20;;
14013;SDS011;49110;52.584;13.408;2023-03-01T05:50:00;15.68;;;10.50;;
14013;SDS011;49110;52.584;13.408;2023-03-01T05:51:00;19.23;;;10.43;;
14013;SDS011;49110;52.584;13.408;2023-03-01T05:52:01;16.80;;;10.07;;
14013;SDS011;49110;52.584;13.408;2023-03-01T05:53:03;15.17;;;10.47;;
14013;SDS011;49110;52.584;13.408;2023-03-01T05:54:08;15.82;;;9.90;;
14013;SDS011;49110;52.584;13.408;2023-03-01T05:55:09;13.50;;;10.32;;
14013;SDS011;49110;52.584;13.408;2023-03-01T05:56:09;14.73;;;10.47;;
14013;SDS011;49110;52.584;13.408;2023-03-01T05:57:10;12.90;;;9.67;;
14013;SDS011;49110;52.584;13.408;2023-03-01T05:58:12;13.43;;;9.90;;
14013;SDS011;49110;52.584;13.408;2023-03-01T05:59:21;16.02;;;10.15;;
14013;SDS011;49110;52.584;13.408;2023-03-01T06:00:30;15.60;;;10.00;;
14013;SDS011;49110;52.584;13.408;2023-03-01T06:01:32;17.53;;;9.50;;
14013;SDS011;49110;52.584;13.408;2023-03-01T06:02:33;16.13;;;9.85;;
14013;SDS011;49110;52.584;13.408;2023-03-01T06:03:33;16.50;;;10.53;;
14013;SDS011;49110;52.584;13.408;2023-03-01T06:04:34;14.60;;;9.23;;
14013;SDS011;49110;52.584;13.408;2023-03-01T06:05:34;15.10;;;10.87;;
14013;SDS011;49110;52.584;13.408;2023-03-01T06:06:35;13.63;;;9.93;;